createdAt,value
2019-05-17T00:00:08.200Z,14.47
2019-05-17T00:02:37.375Z,13.83
2019-05-17T00:05:08.322Z,14.07
2019-05-17T00:07:37.193Z,14.20
2019-05-17T00:10:09.480Z,14.67
2019-05-17T00:12:38.049Z,13.63
2019-05-17T00:15:07.500Z,15.73
2019-05-17T00:17:37.668Z,16.60
2019-05-17T00:20:08.084Z,14.40
2019-05-17T00:22:36.852Z,15.97
2019-05-17T00:25:07.476Z,15.17
2019-05-17T00:27:37.016Z,22.17
2019-05-17T00:30:08.680Z,17.17
2019-05-17T00:32:37.210Z,15.83
2019-05-17T00:35:07.772Z,15.37
2019-05-17T00:37:37.395Z,17.20
2019-05-17T00:40:08.198Z,16.37
2019-05-17T00:42:37.433Z,17.67
2019-05-17T00:45:07.740Z,17.73
2019-05-17T00:47:37.407Z,18.27
2019-05-17T00:50:09.504Z,16.77
2019-05-17T00:52:38.035Z,15.37
2019-05-17T00:55:08.357Z,17.23
2019-05-17T00:57:37.110Z,19.87
2019-05-17T01:00:10.113Z,17.77
2019-05-17T01:02:38.921Z,15.80
2019-05-17T01:05:07.748Z,18.00
2019-05-17T01:07:37.756Z,16.83
2019-05-17T01:10:08.077Z,15.97
2019-05-17T01:12:36.829Z,19.07
2019-05-17T01:15:12.488Z,19.93
2019-05-17T01:17:41.023Z,17.53
2019-05-17T01:20:10.196Z,20.07
2019-05-17T01:22:39.056Z,17.77
2019-05-17T01:25:08.535Z,18.90
2019-05-17T01:27:38.240Z,20.63
2019-05-17T01:30:08.736Z,19.13
2019-05-17T01:32:37.561Z,19.27
2019-05-17T01:35:07.586Z,19.27
2019-05-17T01:37:37.000Z,21.60
2019-05-17T01:40:08.763Z,18.07
2019-05-17T01:42:37.650Z,21.80
2019-05-17T01:45:08.055Z,19.20
2019-05-17T01:47:36.975Z,20.27
2019-05-17T01:50:07.981Z,20.40
2019-05-17T01:52:37.011Z,24.90
2019-05-17T01:55:08.358Z,18.27
2019-05-17T01:57:37.271Z,19.80
2019-05-17T02:00:11.080Z,18.07
2019-05-17T02:02:41.315Z,20.70
2019-05-17T02:05:10.376Z,17.50
2019-05-17T02:07:39.008Z,21.83
2019-05-17T02:10:09.195Z,20.83
2019-05-17T02:12:37.816Z,21.60
2019-05-17T02:15:08.991Z,21.93
2019-05-17T02:17:37.691Z,21.50
2019-05-17T02:20:08.589Z,20.23
2019-05-17T02:22:37.196Z,26.17
2019-05-17T02:25:10.604Z,21.50
2019-05-17T02:27:44.506Z,20.77
2019-05-17T02:30:14.023Z,24.50
2019-05-17T02:32:43.501Z,19.47
2019-05-17T02:35:14.464Z,20.10
2019-05-17T02:37:43.575Z,23.23
2019-05-17T02:40:14.400Z,21.73
2019-05-17T02:42:43.489Z,21.43
2019-05-17T02:45:13.285Z,24.47
2019-05-17T02:47:43.523Z,22.97
2019-05-17T02:50:13.610Z,22.70
2019-05-17T02:52:43.627Z,24.07
2019-05-17T02:55:13.998Z,21.50
2019-05-17T02:57:43.630Z,22.50
2019-05-17T03:00:14.413Z,20.87
2019-05-17T03:02:43.802Z,24.70
2019-05-17T03:05:13.783Z,22.90
2019-05-17T03:07:43.971Z,20.50
2019-05-17T03:10:22.822Z,26.50
2019-05-17T03:12:44.659Z,23.90
2019-05-17T03:15:14.177Z,24.13
2019-05-17T03:17:43.751Z,23.10
2019-05-17T03:20:13.845Z,23.10
2019-05-17T03:22:43.978Z,25.37
2019-05-17T03:25:14.335Z,23.00
2019-05-17T03:27:43.796Z,24.23
2019-05-17T03:30:16.990Z,26.40
2019-05-17T03:32:47.526Z,25.40
2019-05-17T03:35:17.383Z,23.83
2019-05-17T03:37:45.149Z,24.40
2019-05-17T03:40:35.039Z,25.97
2019-05-17T03:42:44.678Z,27.43
2019-05-17T03:45:14.249Z,27.67
2019-05-17T03:47:44.335Z,25.70
2019-05-17T03:50:14.287Z,24.00
2019-05-17T03:52:44.557Z,30.83
2019-05-17T03:55:14.247Z,27.70
2019-05-17T03:57:44.227Z,25.00
2019-05-17T04:00:13.729Z,29.70
2019-05-17T04:02:44.270Z,31.90
2019-05-17T04:05:13.222Z,30.73
2019-05-17T04:07:43.442Z,33.40
2019-05-17T04:10:15.021Z,28.67
2019-05-17T04:12:44.288Z,32.50
2019-05-17T04:15:15.711Z,33.97
2019-05-17T04:17:44.499Z,30.50
2019-05-17T04:20:14.345Z,31.83
2019-05-17T04:22:44.178Z,37.77
2019-05-17T04:25:14.370Z,32.90
2019-05-17T04:27:43.950Z,33.43
2019-05-17T04:30:14.445Z,34.90
2019-05-17T04:32:44.114Z,31.50
2019-05-17T04:35:13.914Z,38.27
2019-05-17T04:37:44.450Z,50.13
2019-05-17T04:40:14.085Z,32.17
2019-05-17T04:42:44.378Z,34.60
2019-05-17T04:45:13.472Z,37.67
2019-05-17T04:47:44.476Z,32.10
2019-05-17T04:50:13.717Z,32.70
2019-05-17T04:52:43.400Z,33.43
2019-05-17T04:55:13.898Z,36.97
2019-05-17T04:57:43.714Z,36.10
2019-05-17T05:00:13.623Z,36.10
2019-05-17T05:02:43.914Z,33.13
2019-05-17T05:05:14.586Z,38.27
2019-05-17T05:07:43.813Z,35.47
2019-05-17T05:10:14.389Z,36.03
2019-05-17T05:12:44.221Z,35.83
2019-05-17T05:15:13.536Z,34.77
2019-05-17T05:17:42.804Z,32.60
2019-05-17T05:20:13.333Z,33.10
2019-05-17T05:22:42.924Z,33.20
2019-05-17T05:25:13.339Z,38.50
2019-05-17T05:27:42.755Z,36.00
2019-05-17T05:30:12.480Z,30.90
2019-05-17T05:32:42.718Z,36.03
2019-05-17T05:35:12.593Z,35.60
2019-05-17T05:37:42.413Z,38.03
2019-05-17T05:40:12.835Z,39.10
2019-05-17T05:42:42.858Z,35.90
2019-05-17T05:45:12.993Z,43.17
2019-05-17T05:47:43.191Z,40.63
2019-05-17T05:50:12.818Z,37.00
2019-05-17T05:52:42.324Z,39.30
2019-05-17T05:55:12.501Z,36.13
2019-05-17T05:57:41.955Z,36.10
2019-05-17T06:00:13.219Z,33.93
2019-05-17T06:02:42.141Z,37.07
2019-05-17T06:05:14.695Z,40.83
2019-05-17T06:07:42.195Z,43.87
2019-05-17T06:10:13.004Z,38.03
2019-05-17T06:12:43.389Z,33.07
2019-05-17T06:15:12.831Z,58.33
2019-05-17T06:17:42.750Z,36.03
2019-05-17T06:20:12.799Z,32.30
2019-05-17T06:22:42.761Z,59.03
2019-05-17T06:25:15.207Z,37.30
2019-05-17T06:27:42.212Z,34.23
2019-05-17T06:30:12.523Z,31.80
2019-05-17T06:32:43.203Z,30.20
2019-05-17T06:35:12.805Z,34.53
2019-05-17T06:37:42.534Z,34.10
2019-05-17T06:40:13.215Z,35.73
2019-05-17T06:42:45.218Z,30.70
2019-05-17T06:45:12.798Z,32.20
2019-05-17T06:47:42.704Z,39.23
2019-05-17T06:50:14.284Z,33.90
2019-05-17T06:52:43.869Z,31.70
2019-05-17T06:55:13.210Z,31.10
2019-05-17T06:57:43.239Z,29.20
2019-05-17T07:00:19.792Z,30.53
2019-05-17T07:02:43.097Z,32.73
2019-05-17T07:05:14.103Z,33.93
2019-05-17T07:07:42.704Z,40.03
2019-05-17T07:10:12.175Z,40.00
2019-05-17T07:12:54.413Z,34.73
2019-05-17T07:15:11.507Z,34.50
2019-05-17T07:17:40.419Z,35.83
2019-05-17T07:20:10.429Z,34.17
2019-05-17T07:22:40.911Z,29.77
2019-05-17T07:25:10.770Z,31.03
2019-05-17T07:27:45.346Z,34.27
2019-05-17T07:30:12.448Z,33.27
2019-05-17T07:32:41.038Z,33.93
2019-05-17T07:35:10.671Z,32.43
2019-05-17T07:37:40.310Z,31.87
2019-05-17T07:40:10.724Z,32.10
2019-05-17T07:42:39.811Z,36.30
2019-05-17T07:45:10.106Z,33.17
2019-05-17T07:47:40.433Z,30.13
2019-05-17T07:50:11.434Z,30.40
2019-05-17T07:52:40.219Z,26.03
2019-05-17T07:55:10.766Z,30.27
2019-05-17T07:57:40.914Z,27.73
2019-05-17T08:00:10.882Z,29.60
2019-05-17T08:02:40.120Z,30.03
2019-05-17T08:05:10.926Z,31.80
2019-05-17T08:07:40.660Z,25.60
2019-05-17T08:10:10.981Z,24.80
2019-05-17T08:12:40.547Z,26.63
2019-05-17T08:15:10.664Z,25.03
2019-05-17T08:17:39.991Z,29.90
2019-05-17T08:20:10.465Z,24.87
2019-05-17T08:22:40.090Z,24.97
2019-05-17T08:25:10.312Z,31.93
2019-05-17T08:27:40.574Z,27.27
2019-05-17T08:30:10.923Z,26.23
2019-05-17T08:32:40.488Z,28.70
2019-05-17T08:35:11.258Z,26.97
2019-05-17T08:37:42.241Z,26.03
2019-05-17T08:40:11.152Z,24.80
2019-05-17T08:42:40.850Z,27.03
2019-05-17T08:45:10.405Z,27.83
2019-05-17T08:47:39.685Z,28.77
2019-05-17T08:50:11.451Z,26.17
2019-05-17T08:52:40.247Z,26.73
2019-05-17T08:55:10.015Z,26.90
2019-05-17T08:57:40.145Z,25.60
2019-05-17T09:00:10.639Z,25.50
2019-05-17T09:02:40.806Z,26.03
2019-05-17T09:05:10.324Z,29.70
2019-05-17T09:07:40.285Z,26.93
2019-05-17T09:10:10.300Z,26.43
2019-05-17T09:12:41.023Z,29.03
2019-05-17T09:15:10.169Z,22.40
2019-05-17T09:17:39.727Z,23.27
2019-05-17T09:20:11.030Z,22.23
2019-05-17T09:22:39.998Z,21.47
2019-05-17T09:25:13.531Z,21.63
2019-05-17T09:27:39.882Z,22.67
2019-05-17T09:30:10.817Z,22.67
2019-05-17T09:32:40.457Z,21.00
2019-05-17T09:35:10.056Z,18.73
2019-05-17T09:37:41.436Z,22.10
2019-05-17T09:40:10.567Z,18.50
2019-05-17T09:42:41.087Z,19.33
2019-05-17T09:45:10.153Z,18.00
2019-05-17T09:47:39.735Z,17.87
2019-05-17T09:50:09.909Z,19.60
2019-05-17T09:52:40.539Z,19.00
2019-05-17T09:55:09.858Z,19.97
2019-05-17T09:57:41.016Z,20.37
2019-05-17T10:00:10.612Z,19.87
2019-05-17T10:02:40.320Z,20.43
2019-05-17T10:05:10.729Z,19.77
2019-05-17T10:07:40.296Z,20.90
2019-05-17T10:10:10.614Z,19.23
2019-05-17T10:12:40.275Z,18.67
2019-05-17T10:15:10.225Z,20.00
2019-05-17T10:17:38.948Z,22.40
2019-05-17T10:20:10.514Z,17.37
2019-05-17T10:22:40.100Z,17.30
2019-05-17T10:25:09.674Z,20.23
2019-05-17T10:27:40.637Z,16.63
2019-05-17T10:30:10.658Z,17.63
2019-05-17T10:32:40.826Z,15.73
2019-05-17T10:35:10.955Z,15.83
2019-05-17T10:37:40.763Z,15.80
2019-05-17T10:40:10.896Z,17.10
2019-05-17T10:42:40.092Z,13.83
2019-05-17T10:45:10.843Z,20.20
2019-05-17T10:47:40.063Z,40.53
2019-05-17T10:50:10.884Z,15.37
2019-05-17T10:52:40.827Z,17.37
2019-05-17T10:55:10.786Z,13.90
2019-05-17T10:57:39.538Z,12.23
2019-05-17T11:00:10.145Z,13.70
2019-05-17T11:02:39.287Z,12.00
2019-05-17T11:05:10.542Z,13.17
2019-05-17T11:07:38.772Z,12.80
2019-05-17T11:10:11.183Z,12.33
2019-05-17T11:12:38.263Z,12.73
2019-05-17T11:15:11.574Z,12.70
2019-05-17T11:17:37.651Z,13.30
2019-05-17T11:20:08.019Z,12.77
2019-05-17T11:22:36.589Z,11.83
2019-05-17T11:25:08.257Z,11.10
2019-05-17T11:27:36.938Z,11.30
2019-05-17T11:30:07.512Z,12.20
2019-05-17T11:32:36.076Z,10.37
2019-05-17T11:35:05.736Z,11.37
2019-05-17T11:37:34.200Z,10.63
2019-05-17T11:40:03.424Z,10.70
2019-05-17T11:42:31.947Z,9.40
2019-05-17T11:45:00.432Z,11.43
2019-05-17T11:47:28.964Z,10.53
2019-05-17T11:49:57.463Z,10.13
2019-05-17T11:52:25.991Z,9.50
2019-05-17T11:54:54.476Z,9.43
2019-05-17T11:57:22.932Z,8.40
2019-05-17T11:59:51.532Z,9.23
2019-05-17T12:02:21.637Z,7.50
2019-05-17T12:04:50.494Z,9.20
2019-05-17T12:07:19.219Z,9.93
2019-05-17T12:09:47.743Z,9.30
2019-05-17T12:12:16.232Z,9.93
2019-05-17T12:14:44.834Z,9.70
2019-05-17T12:17:13.383Z,9.63
2019-05-17T12:19:41.847Z,9.93
2019-05-17T12:22:10.397Z,8.20
2019-05-17T12:24:38.931Z,8.73
2019-05-17T12:27:07.477Z,8.07
2019-05-17T12:29:36.333Z,7.27
2019-05-17T12:32:04.932Z,7.30
2019-05-17T12:34:33.428Z,7.50
2019-05-17T12:37:01.994Z,7.20
2019-05-17T12:39:30.511Z,7.80
2019-05-17T12:41:59.177Z,6.00
2019-05-17T12:44:27.781Z,5.63
2019-05-17T12:46:56.336Z,6.30
2019-05-17T12:49:24.868Z,7.10
2019-05-17T12:51:53.359Z,6.50
2019-05-17T12:54:21.884Z,5.70
2019-05-17T12:56:50.442Z,6.70
2019-05-17T12:59:18.973Z,5.67
2019-05-17T13:01:47.539Z,5.47
2019-05-17T13:04:16.410Z,5.83
2019-05-17T13:06:44.968Z,5.93
2019-05-17T13:09:13.579Z,5.93
2019-05-17T13:11:42.101Z,5.17
2019-05-17T13:14:10.656Z,5.53
2019-05-17T13:16:39.221Z,4.47
2019-05-17T13:19:07.755Z,5.33
2019-05-17T13:21:36.271Z,4.97
2019-05-17T13:24:04.887Z,4.90
2019-05-17T13:26:33.344Z,4.90
2019-05-17T13:29:01.968Z,4.40
2019-05-17T13:31:30.503Z,4.60
2019-05-17T13:33:59.089Z,4.40
2019-05-17T13:36:27.688Z,4.70
2019-05-17T13:38:56.180Z,4.03
2019-05-17T13:41:25.065Z,5.03
2019-05-17T13:43:53.974Z,5.07
2019-05-17T13:46:32.742Z,5.40
2019-05-17T13:48:53.160Z,4.80
2019-05-17T13:51:21.718Z,4.77
2019-05-17T13:53:50.248Z,4.60
2019-05-17T13:56:18.874Z,4.97
2019-05-17T13:58:47.409Z,4.10
2019-05-17T14:01:15.964Z,4.20
2019-05-17T14:03:44.431Z,4.60
2019-05-17T14:06:12.986Z,4.43
2019-05-17T14:08:41.512Z,5.60
2019-05-17T14:11:10.069Z,6.80
2019-05-17T14:13:38.625Z,4.70
2019-05-17T14:16:07.177Z,4.50
2019-05-17T14:18:35.700Z,4.93
2019-05-17T14:21:04.255Z,4.73
2019-05-17T14:23:32.712Z,4.43
2019-05-17T14:26:01.197Z,4.67
2019-05-17T14:28:29.728Z,4.23
2019-05-17T14:30:58.285Z,3.30
2019-05-17T14:33:26.813Z,3.90
2019-05-17T14:35:55.369Z,3.57
2019-05-17T14:38:23.900Z,3.50
2019-05-17T14:41:08.845Z,4.17
2019-05-17T14:43:22.709Z,4.80
2019-05-17T14:45:51.264Z,3.60
2019-05-17T14:48:20.058Z,3.70
2019-05-17T14:50:48.548Z,4.30
2019-05-17T14:53:17.072Z,4.50
2019-05-17T14:55:45.580Z,4.00
2019-05-17T14:58:14.437Z,3.97
2019-05-17T15:00:42.964Z,3.80
2019-05-17T15:03:11.524Z,3.60
2019-05-17T15:05:40.393Z,4.87
2019-05-17T15:08:08.948Z,4.27
2019-05-17T15:10:37.478Z,4.30
2019-05-17T15:13:06.036Z,10.10
2019-05-17T15:15:34.636Z,4.03
2019-05-17T15:18:03.193Z,4.20
2019-05-17T15:20:31.725Z,3.73
2019-05-17T15:23:00.356Z,4.57
2019-05-17T15:25:28.888Z,3.90
2019-05-17T15:27:57.439Z,3.63
2019-05-17T15:30:25.978Z,3.60
2019-05-17T15:32:54.572Z,4.00
2019-05-17T15:35:23.133Z,4.00
2019-05-17T15:37:51.668Z,4.10
2019-05-17T15:40:20.224Z,3.47
2019-05-17T15:42:48.891Z,3.50
2019-05-17T15:45:17.590Z,3.40
2019-05-17T15:47:46.420Z,4.07
2019-05-17T15:50:16.560Z,3.57
2019-05-17T15:52:45.111Z,4.60
2019-05-17T15:55:14.581Z,3.93
2019-05-17T15:57:43.077Z,4.10
2019-05-17T16:00:11.891Z,2.90
2019-05-17T16:02:40.411Z,3.30
2019-05-17T16:05:09.409Z,4.87
2019-05-17T16:07:37.937Z,4.13
2019-05-17T16:10:12.150Z,3.90
2019-05-17T16:12:40.685Z,3.03
2019-05-17T16:15:09.564Z,2.83
2019-05-17T16:17:38.249Z,3.13
2019-05-17T16:20:07.359Z,2.90
2019-05-17T16:22:35.896Z,3.37
2019-05-17T16:25:06.531Z,3.20
2019-05-17T16:27:35.060Z,3.50
2019-05-17T16:30:07.191Z,3.20
2019-05-17T16:32:35.733Z,2.60
2019-05-17T16:35:05.016Z,2.90
2019-05-17T16:37:33.553Z,3.10
2019-05-17T16:40:02.106Z,2.90
2019-05-17T16:42:30.705Z,2.53
2019-05-17T16:44:59.268Z,2.73
2019-05-17T16:47:27.792Z,3.70
2019-05-17T16:49:56.344Z,4.63
2019-05-17T16:52:25.376Z,3.20
2019-05-17T16:54:54.365Z,3.37
2019-05-17T16:57:22.900Z,3.17
2019-05-17T16:59:51.463Z,2.80
2019-05-17T17:02:20.070Z,4.20
2019-05-17T17:04:48.676Z,2.70
2019-05-17T17:07:17.594Z,2.80
2019-05-17T17:09:46.484Z,3.33
2019-05-17T17:12:15.103Z,2.40
2019-05-17T17:14:43.568Z,2.97
2019-05-17T17:17:13.252Z,2.80
2019-05-17T17:19:42.164Z,2.73
2019-05-17T17:22:10.789Z,3.17
2019-05-17T17:24:39.325Z,3.43
2019-05-17T17:27:07.860Z,3.27
2019-05-17T17:29:36.690Z,3.47
2019-05-17T17:32:20.583Z,3.60
2019-05-17T17:34:35.788Z,3.40
2019-05-17T17:37:04.240Z,3.10
2019-05-17T17:39:32.720Z,3.00
2019-05-17T17:42:01.581Z,3.30
2019-05-17T17:44:30.064Z,3.10
2019-05-17T17:46:58.831Z,3.20
2019-05-17T17:49:27.396Z,3.60
2019-05-17T17:51:55.933Z,34.03
2019-05-17T17:54:24.489Z,10.67
2019-05-17T17:56:53.024Z,4.17
2019-05-17T17:59:21.547Z,4.20
2019-05-17T18:01:50.061Z,4.20
2019-05-17T18:04:18.849Z,3.87
2019-05-17T18:06:47.482Z,3.83
2019-05-17T18:09:16.016Z,4.00
2019-05-17T18:11:44.869Z,3.90
2019-05-17T18:14:14.011Z,4.23
2019-05-17T18:16:42.687Z,3.60
2019-05-17T18:19:11.151Z,4.20
2019-05-17T18:21:39.929Z,4.23
2019-05-17T18:24:08.563Z,4.37
2019-05-17T18:26:37.156Z,4.67
2019-05-17T18:29:07.954Z,5.20
2019-05-17T18:31:36.105Z,4.23
2019-05-17T18:34:04.730Z,4.80
2019-05-17T18:36:33.256Z,3.83
2019-05-17T18:39:05.029Z,4.93
2019-05-17T18:41:33.627Z,4.23
2019-05-17T18:44:02.505Z,4.20
2019-05-17T18:46:31.497Z,4.63
2019-05-17T18:49:00.098Z,5.00
2019-05-17T18:51:28.870Z,4.43
2019-05-17T18:53:58.060Z,5.40
2019-05-17T18:56:26.524Z,5.70
2019-05-17T18:58:55.460Z,27.47
2019-05-17T19:01:23.932Z,16.03
2019-05-17T19:03:52.418Z,6.50
2019-05-17T19:06:20.943Z,6.80
2019-05-17T19:08:49.425Z,6.60
2019-05-17T19:11:17.960Z,3.80
2019-05-17T19:13:46.520Z,3.07
2019-05-17T19:16:15.419Z,2.50
2019-05-17T19:18:43.976Z,2.60
2019-05-17T19:21:12.510Z,2.40
2019-05-17T19:23:41.036Z,2.43
2019-05-17T19:26:09.523Z,1.90
2019-05-17T19:28:38.095Z,1.90
2019-05-17T19:31:06.650Z,1.97
2019-05-17T19:33:35.104Z,1.97
2019-05-17T19:36:03.590Z,2.00
2019-05-17T19:38:32.126Z,1.97
2019-05-17T19:41:00.690Z,1.73
2019-05-17T19:43:29.217Z,1.93
2019-05-17T19:45:57.868Z,1.90
2019-05-17T19:48:26.324Z,2.17
2019-05-17T19:50:54.790Z,1.77
2019-05-17T19:53:23.404Z,1.83
2019-05-17T19:55:51.945Z,1.80
2019-05-17T19:58:20.553Z,1.70
2019-05-17T20:00:49.116Z,135.90
2019-05-17T20:03:17.903Z,3.90
2019-05-17T20:05:46.462Z,2.17
2019-05-17T20:08:14.932Z,2.00
2019-05-17T20:10:43.535Z,1.70
2019-05-17T20:13:12.013Z,2.00
2019-05-17T20:15:40.925Z,2.00
2019-05-17T20:18:10.055Z,2.50
2019-05-17T20:20:38.932Z,1.90
2019-05-17T20:23:07.464Z,1.93
2019-05-17T20:25:36.012Z,2.00
2019-05-17T20:28:04.483Z,2.03
2019-05-17T20:30:33.043Z,1.80
2019-05-17T20:33:01.961Z,1.70
2019-05-17T20:35:30.826Z,1.83
2019-05-17T20:37:59.360Z,2.43
2019-05-17T20:40:27.920Z,7.53
2019-05-17T20:42:56.470Z,1.70
2019-05-17T20:45:33.059Z,2.10
2019-05-17T20:47:55.260Z,2.10
2019-05-17T20:50:24.057Z,2.37
2019-05-17T20:52:52.960Z,2.20
2019-05-17T20:55:22.048Z,2.03
2019-05-17T20:57:50.948Z,2.50
2019-05-17T21:00:19.833Z,2.20
2019-05-17T21:02:48.323Z,2.00
2019-05-17T21:05:18.575Z,2.57
2019-05-17T21:07:47.570Z,2.10
2019-05-17T21:10:16.439Z,2.00
2019-05-17T21:12:44.991Z,2.63
2019-05-17T21:15:13.687Z,2.40
2019-05-17T21:17:42.252Z,2.20
2019-05-17T21:20:11.472Z,2.70
2019-05-17T21:22:39.959Z,2.13
2019-05-17T21:25:09.183Z,2.40
2019-05-17T21:27:37.941Z,4.50
2019-05-17T21:30:07.004Z,2.23
2019-05-17T21:32:35.565Z,2.27
2019-05-17T21:35:05.764Z,2.10
2019-05-17T21:37:34.855Z,2.27
2019-05-17T21:40:06.156Z,2.97
2019-05-17T21:42:34.725Z,2.60
2019-05-17T21:45:04.894Z,2.50
2019-05-17T21:47:33.784Z,5.43
2019-05-17T21:50:02.391Z,61.03
2019-05-17T21:52:31.261Z,6.77
2019-05-17T21:54:59.783Z,3.03
2019-05-17T21:57:28.273Z,2.70
2019-05-17T21:59:57.112Z,2.90
2019-05-17T22:02:25.808Z,2.60
2019-05-17T22:04:54.344Z,2.73
2019-05-17T22:07:22.901Z,3.00
2019-05-17T22:09:51.362Z,3.13
2019-05-17T22:12:19.912Z,3.70
2019-05-17T22:14:48.721Z,4.07
2019-05-17T22:17:17.260Z,4.50
2019-05-17T22:19:45.810Z,3.80
2019-05-17T22:22:14.348Z,3.80
2019-05-17T22:24:42.903Z,3.30
2019-05-17T22:27:11.505Z,3.00
2019-05-17T22:29:40.064Z,4.40
2019-05-17T22:32:08.918Z,3.27
2019-05-17T22:34:37.467Z,3.40
2019-05-17T22:37:05.999Z,3.47
2019-05-17T22:39:34.588Z,3.20
2019-05-17T22:42:07.702Z,2.90
2019-05-17T22:44:36.264Z,4.90
2019-05-17T22:47:04.866Z,4.30
2019-05-17T22:49:33.424Z,4.73
2019-05-17T22:52:01.943Z,4.10
2019-05-17T22:54:30.428Z,3.67
2019-05-17T22:56:59.037Z,3.83
2019-05-17T22:59:27.592Z,3.20
2019-05-17T23:01:56.120Z,3.40
2019-05-17T23:04:24.604Z,3.50
2019-05-17T23:06:53.137Z,2.90
2019-05-17T23:09:22.073Z,2.90
2019-05-17T23:11:50.529Z,3.40
2019-05-17T23:14:19.525Z,3.43
2019-05-17T23:16:51.533Z,3.33
2019-05-17T23:19:18.553Z,3.10
2019-05-17T23:21:47.101Z,3.17
2019-05-17T23:24:16.027Z,3.20
2019-05-17T23:26:44.487Z,2.87
2019-05-17T23:29:13.036Z,2.90
2019-05-17T23:31:41.493Z,3.13
2019-05-17T23:34:09.975Z,3.20
2019-05-17T23:36:38.503Z,3.33
2019-05-17T23:39:07.200Z,3.60
2019-05-17T23:41:35.651Z,3.50
2019-05-17T23:44:04.640Z,3.43
2019-05-17T23:46:33.168Z,4.03
2019-05-17T23:49:01.652Z,3.50
2019-05-17T23:51:30.553Z,3.80
2019-05-17T23:53:59.115Z,3.47
2019-05-17T23:56:27.647Z,4.13
2019-05-17T23:58:56.195Z,4.20
